Time;durP1;ratioP1;P1;durP2;ratioP2;P2;SDS_P1;SDS_P2;PMS_P1;PMS_P2;Temp;Humidity;BMP_temperature;BMP_pressure;BME280_temperature;BME280_humidity;BME280_pressure;Samples;Min_cycle;Max_cycle;Signal;HPM_P1;HPM_P2
2022/01/22 00:01:43;;;;;;;17.47;10.47;;;3.90;99.90;;;;;;5056258;28;20172;-44
2022/01/22 00:04:09;;;;;;;20.13;9.73;;;3.90;99.90;;;;;;5055855;28;20180;-46
2022/01/22 00:06:35;;;;;;;19.00;9.30;;;4.00;99.90;;;;;;5055844;28;20322;-45
2022/01/22 00:09:02;;;;;;;23.67;11.73;;;4.00;99.90;;;;;;5055886;28;20243;-45
2022/01/22 00:11:34;;;;;;;19.53;9.80;;;4.00;99.90;;;;;;5055980;28;20706;-43
2022/01/22 00:16:44;;;;;;;19.43;8.90;;;4.00;99.90;;;;;;5055661;28;20203;-44
2022/01/22 00:19:10;;;;;;;20.93;11.00;;;3.90;99.90;;;;;;5056240;28;20559;-45
2022/01/22 00:21:38;;;;;;;21.53;9.43;;;3.90;99.90;;;;;;5055511;28;20183;-45
2022/01/22 00:24:06;;;;;;;19.47;10.63;;;3.90;99.90;;;;;;5055477;28;20542;-45
2022/01/22 00:26:32;;;;;;;19.10;11.70;;;3.90;99.90;;;;;;5055576;28;20210;-46
2022/01/22 00:28:57;;;;;;;26.67;12.10;;;3.90;99.90;;;;;;5055382;28;20180;-45
2022/01/22 00:31:23;;;;;;;18.93;10.13;;;3.90;99.90;;;;;;5037425;28;20197;-45
2022/01/22 00:33:48;;;;;;;24.17;12.20;;;3.90;99.90;;;;;;5055492;28;20609;-44
2022/01/22 00:36:14;;;;;;;25.37;12.33;;;3.90;99.90;;;;;;5055089;28;20627;-46
2022/01/22 00:38:39;;;;;;;27.40;14.10;;;3.90;99.90;;;;;;5055388;28;20259;-44
2022/01/22 00:41:05;;;;;;;23.27;12.90;;;3.90;99.90;;;;;;5055388;28;20202;-44
2022/01/22 00:43:31;;;;;;;27.40;14.00;;;3.90;99.90;;;;;;5037239;28;20172;-46
2022/01/22 00:45:56;;;;;;;22.87;13.67;;;3.90;99.90;;;;;;5055064;28;20245;-46
2022/01/22 00:48:22;;;;;;;23.73;15.03;;;3.90;99.90;;;;;;5055036;28;20183;-45
2022/01/22 00:50:51;;;;;;;32.13;14.13;;;3.90;99.90;;;;;;5053752;28;20263;-46
2022/01/22 00:53:17;;;;;;;30.73;13.57;;;3.90;99.90;;;;;;5054813;28;20652;-46
2022/01/22 00:55:42;;;;;;;25.07;14.13;;;3.90;99.90;;;;;;5055107;28;20211;-44
2022/01/22 00:58:08;;;;;;;20.10;10.57;;;3.90;99.90;;;;;;5054884;28;20218;-45
2022/01/22 01:00:34;;;;;;;22.30;11.83;;;3.90;99.90;;;;;;5054964;28;20208;-47
2022/01/22 01:03:00;;;;;;;21.93;12.57;;;3.90;99.90;;;;;;5054718;28;20255;-47
2022/01/22 01:05:25;;;;;;;25.97;13.53;;;3.90;99.90;;;;;;5054740;28;20576;-45
2022/01/22 01:07:51;;;;;;;26.73;12.50;;;3.80;99.90;;;;;;5054667;28;20183;-44
2022/01/22 01:10:18;;;;;;;24.00;14.40;;;3.80;99.90;;;;;;5055854;28;20184;-45
2022/01/22 01:12:45;;;;;;;31.27;14.90;;;3.80;99.90;;;;;;5056190;28;20180;-46
2022/01/22 01:32:09;;;;;;;27.27;15.27;;;3.80;99.90;;;;;;5055036;28;20302;-48
2022/01/22 01:34:31;;;;;;;13.23;8.17;;;3.80;99.90;;;;;;5054337;28;20238;-44
2022/01/22 01:36:57;;;;;;;27.73;16.43;;;3.80;99.90;;;;;;5053971;28;20223;-43
2022/01/22 01:39:28;;;;;;;30.30;15.13;;;3.80;99.90;;;;;;5054227;28;20204;-46
2022/01/22 01:44:23;;;;;;;32.63;16.50;;;3.80;99.90;;;;;;5054249;28;20215;-47
2022/01/22 01:46:51;;;;;;;26.93;17.00;;;3.80;99.90;;;;;;5054023;28;20223;-44
2022/01/22 01:49:17;;;;;;;24.53;15.30;;;3.80;99.90;;;;;;5054101;28;20194;-47
2022/01/22 01:51:45;;;;;;;34.40;16.30;;;3.80;99.90;;;;;;5036079;28;20274;-47
2022/01/22 01:59:44;;;;;;;30.67;17.63;;;3.80;99.90;;;;;;5054053;28;20210;-46
2022/01/22 02:02:11;;;;;;;28.40;15.80;;;3.80;99.90;;;;;;5053385;28;20184;-47
2022/01/22 02:04:37;;;;;;;31.10;18.33;;;3.70;99.90;;;;;;5054198;28;20521;-44
2022/01/22 02:07:03;;;;;;;30.47;16.50;;;3.80;99.90;;;;;;5035590;28;20208;-45
2022/01/22 02:09:29;;;;;;;36.53;20.17;;;3.70;99.90;;;;;;5053815;28;20192;-46
2022/01/22 02:12:10;;;;;;;26.90;15.67;;;3.70;99.90;;;;;;5035735;28;20275;-45
2022/01/22 02:25:21;;;;;;;40.30;18.47;;;3.70;99.90;;;;;;5053792;28;20253;-44
2022/01/22 02:27:47;;;;;;;32.60;17.47;;;3.70;99.90;;;;;;5053539;28;20616;-45
2022/01/22 02:30:19;;;;;;;34.63;16.50;;;3.70;99.90;;;;;;5053256;28;20187;-45
2022/01/22 02:35:26;;;;;;;38.90;18.97;;;3.70;99.90;;;;;;5053370;28;20184;-44
2022/01/22 02:37:59;;;;;;;31.07;17.17;;;3.70;99.90;;;;;;5053166;28;20655;-45
2022/01/22 02:40:29;;;;;;;33.00;18.70;;;3.70;99.90;;;;;;5053051;28;20669;-45
2022/01/22 02:42:54;;;;;;;30.07;16.07;;;3.70;99.90;;;;;;5035217;28;20180;-45
2022/01/22 02:45:23;;;;;;;28.53;17.27;;;3.80;99.90;;;;;;5053271;28;20183;-44
2022/01/22 02:47:49;;;;;;;32.50;17.60;;;3.70;99.90;;;;;;5035303;28;20210;-44
2022/01/22 02:50:16;;;;;;;28.50;17.80;;;3.70;99.90;;;;;;5053235;28;20211;-46
2022/01/22 02:52:42;;;;;;;32.20;18.93;;;3.70;99.90;;;;;;5053031;28;20230;-45
2022/01/22 02:55:08;;;;;;;30.03;16.67;;;3.70;99.90;;;;;;5035070;28;20275;-45
2022/01/22 02:57:38;;;;;;;34.30;16.33;;;3.70;99.90;;;;;;5035442;28;20186;-46
2022/01/22 03:00:11;;;;;;;23.13;15.10;;;3.70;99.90;;;;;;5052811;28;20695;-45
2022/01/22 03:02:37;;;;;;;22.53;12.80;;;3.80;99.90;;;;;;5053147;28;20184;-45
2022/01/22 03:05:04;;;;;;;37.60;17.30;;;3.80;99.90;;;;;;5053166;28;20191;-45
2022/01/22 03:07:30;;;;;;;22.23;14.83;;;3.80;99.90;;;;;;5053088;28;20216;-44
2022/01/22 03:10:01;;;;;;;31.37;16.90;;;3.80;99.90;;;;;;5052826;28;20184;-47
2022/01/22 03:27:52;;;;;;;30.43;15.83;;;3.90;99.90;;;;;;5056886;28;20631;-48
2022/01/22 03:30:18;;;;;;;24.80;16.20;;;3.90;99.90;;;;;;5056417;28;20234;-45
2022/01/22 03:32:48;;;;;;;26.13;13.70;;;3.90;99.90;;;;;;5056404;28;20216;-46
2022/01/22 03:37:41;;;;;;;27.33;14.97;;;3.90;99.90;;;;;;5038556;28;20265;-47
2022/01/22 03:40:09;;;;;;;29.17;15.00;;;3.90;99.90;;;;;;5056216;28;20283;-48
2022/01/22 03:42:35;;;;;;;27.67;14.40;;;3.90;99.90;;;;;;5056274;28;20181;-47
2022/01/22 03:45:06;;;;;;;21.30;13.17;;;4.00;99.90;;;;;;5056133;28;20255;-48
2022/01/22 03:47:31;;;;;;;32.30;16.23;;;4.00;99.90;;;;;;5056528;28;20202;-48
2022/01/22 03:49:57;;;;;;;29.40;14.17;;;3.90;99.90;;;;;;5038238;28;20188;-47
2022/01/22 03:52:23;;;;;;;30.27;15.87;;;3.90;99.90;;;;;;5056054;28;20234;-44
2022/01/22 03:54:48;;;;;;;33.13;15.87;;;4.00;99.90;;;;;;5056002;28;20191;-45
2022/01/22 03:57:14;;;;;;;28.17;16.87;;;3.90;99.90;;;;;;5056240;28;20258;-46
2022/01/22 03:59:39;;;;;;;26.43;15.80;;;3.90;99.90;;;;;;5056162;28;20345;-48
2022/01/22 04:04:51;;;;;;;27.37;16.50;;;4.00;99.90;;;;;;5056177;28;20171;-48
2022/01/22 04:07:57;;;;;;;31.57;16.60;;;4.00;99.90;;;;;;5055721;28;20246;-48
2022/01/22 04:10:14;;;;;;;26.20;14.70;;;4.00;99.90;;;;;;5055614;28;20192;-49
2022/01/22 04:12:50;;;;;;;34.90;17.60;;;4.00;99.90;;;;;;5056073;28;20727;-44
2022/01/22 04:15:20;;;;;;;27.20;16.90;;;4.00;99.90;;;;;;5055694;28;20253;-46
2022/01/22 04:25:49;;;;;;;25.90;17.10;;;4.00;99.90;;;;;;5055674;28;20291;-44
2022/01/22 04:28:14;;;;;;;30.97;15.37;;;4.00;99.90;;;;;;5055751;28;20180;-44
2022/01/22 04:30:40;;;;;;;29.97;16.93;;;4.00;99.90;;;;;;5055383;28;20553;-45
2022/01/22 04:33:06;;;;;;;30.33;17.23;;;4.00;99.90;;;;;;5055639;28;20583;-46
2022/01/22 04:35:32;;;;;;;31.13;18.63;;;4.00;99.90;;;;;;5055106;28;20733;-47
2022/01/22 04:37:58;;;;;;;27.80;15.93;;;4.00;99.90;;;;;;5055373;28;20195;-46
2022/01/22 04:40:24;;;;;;;30.60;18.27;;;4.00;99.90;;;;;;5055508;28;20212;-45
2022/01/22 04:42:50;;;;;;;29.43;17.00;;;4.00;99.90;;;;;;5056261;28;20177;-46
2022/01/22 04:45:44;;;;;;;34.77;18.47;;;4.10;99.90;;;;;;5038884;28;20191;-46
2022/01/22 04:48:25;;;;;;;30.93;18.07;;;4.00;99.90;;;;;;5039431;28;20207;-45
2022/01/22 04:56:19;;;;;;;36.13;18.93;;;4.10;99.90;;;;;;5054843;28;20223;-46
2022/01/22 04:58:45;;;;;;;30.30;18.00;;;4.10;99.90;;;;;;5055022;28;20228;-44
2022/01/22 05:01:11;;;;;;;36.93;19.63;;;4.10;99.90;;;;;;5054750;28;20664;-45
2022/01/22 05:03:36;;;;;;;36.17;19.53;;;4.10;99.90;;;;;;5036942;28;20595;-47
2022/01/22 05:06:06;;;;;;;34.53;20.13;;;4.10;99.90;;;;;;5054670;28;20249;-46
2022/01/22 05:08:32;;;;;;;30.30;19.47;;;4.10;99.90;;;;;;5054892;28;20180;-44
2022/01/22 05:10:58;;;;;;;34.77;19.47;;;4.10;99.90;;;;;;5054871;28;20183;-45
2022/01/22 05:13:23;;;;;;;38.93;21.07;;;4.10;99.90;;;;;;5054519;28;20177;-46
2022/01/22 05:15:49;;;;;;;35.07;21.17;;;4.10;99.90;;;;;;5054650;28;20211;-44
2022/01/22 05:18:15;;;;;;;35.60;20.63;;;4.10;99.90;;;;;;5036532;28;20172;-45
2022/01/22 05:20:50;;;;;;;36.97;19.97;;;4.10;99.90;;;;;;5054805;28;20200;-46
2022/01/22 05:23:21;;;;;;;38.93;19.43;;;4.10;99.90;;;;;;5036514;28;20176;-46
2022/01/22 05:25:53;;;;;;;35.43;22.57;;;4.10;99.90;;;;;;5054269;28;20195;-46
2022/01/22 05:37:12;;;;;;;36.50;22.17;;;4.10;99.90;;;;;;5053482;28;20610;-47
2022/01/22 05:39:38;;;;;;;39.43;22.30;;;4.10;99.90;;;;;;5053764;28;20243;-45
2022/01/22 05:42:07;;;;;;;38.07;23.23;;;4.10;99.90;;;;;;5036178;28;20176;-46
2022/01/22 05:44:33;;;;;;;35.90;22.57;;;4.10;99.90;;;;;;5054222;28;20200;-45
2022/01/22 05:47:04;;;;;;;41.47;23.80;;;4.10;99.90;;;;;;5053819;28;20222;-45
2022/01/22 05:49:33;;;;;;;42.20;23.23;;;4.10;99.90;;;;;;5054171;28;20515;-48
2022/01/22 05:52:01;;;;;;;39.03;20.87;;;4.10;99.90;;;;;;5035983;28;20279;-45
2022/01/22 05:59:43;;;;;;;45.00;25.20;;;4.10;99.90;;;;;;5054124;28;20246;-46
2022/01/22 06:02:15;;;;;;;37.23;23.63;;;4.10;99.90;;;;;;5053672;28;20540;-45
2022/01/22 06:04:43;;;;;;;46.30;24.43;;;4.20;99.90;;;;;;5054262;28;20175;-47
2022/01/22 06:07:09;;;;;;;49.50;24.50;;;4.10;99.90;;;;;;5035726;28;20231;-45
2022/01/22 06:09:39;;;;;;;46.40;26.67;;;4.10;99.90;;;;;;5053562;28;20185;-46
2022/01/22 06:14:34;;;;;;;47.53;26.17;;;4.10;99.90;;;;;;5053828;28;20237;-46
2022/01/22 06:17:01;;;;;;;39.70;22.37;;;4.10;99.90;;;;;;5053414;28;20200;-47
2022/01/22 06:19:28;;;;;;;52.23;28.20;;;4.10;99.90;;;;;;5053480;28;20671;-46
2022/01/22 06:21:54;;;;;;;54.60;29.90;;;4.10;99.90;;;;;;5053735;28;20184;-43
2022/01/22 06:24:20;;;;;;;51.23;27.67;;;4.10;99.90;;;;;;5053767;28;20172;-44
2022/01/22 06:26:46;;;;;;;45.47;28.10;;;4.10;99.90;;;;;;5053375;28;20564;-44
2022/01/22 06:29:12;;;;;;;59.53;29.67;;;4.20;99.90;;;;;;5053589;28;20184;-42
2022/01/22 06:31:37;;;;;;;48.50;28.10;;;4.20;99.90;;;;;;5053533;28;20176;-44
2022/01/22 06:34:04;;;;;;;47.97;27.47;;;4.10;99.90;;;;;;5053540;28;20285;-44
2022/01/22 06:36:31;;;;;;;49.53;28.40;;;4.10;99.90;;;;;;5053116;28;20219;-43
2022/01/22 06:39:10;;;;;;;56.23;28.77;;;4.10;99.90;;;;;;5052954;28;20211;-43
2022/01/22 06:41:45;;;;;;;55.53;30.97;;;4.20;99.90;;;;;;5053427;28;20558;-44
2022/01/22 06:44:24;;;;;;;54.50;29.80;;;4.20;99.90;;;;;;5053017;28;20172;-43
2022/01/22 06:46:55;;;;;;;54.13;29.33;;;4.20;99.90;;;;;;5053066;28;20273;-42
2022/01/22 06:49:21;;;;;;;55.17;29.37;;;4.20;99.90;;;;;;5057298;28;20184;-41
2022/01/22 06:51:47;;;;;;;49.40;28.23;;;4.20;99.90;;;;;;5057487;28;20536;-44
2022/01/22 06:54:14;;;;;;;55.63;30.50;;;4.20;99.90;;;;;;5057243;28;20222;-42
2022/01/22 06:56:40;;;;;;;58.80;30.20;;;4.20;99.90;;;;;;5039212;28;20223;-42
2022/01/22 06:59:11;;;;;;;48.50;24.93;;;4.20;99.90;;;;;;5039215;28;20283;-44
2022/01/22 07:01:37;;;;;;;54.73;30.20;;;4.20;99.90;;;;;;5039273;28;20241;-44
2022/01/22 07:04:03;;;;;;;62.43;31.83;;;4.20;99.90;;;;;;5056962;28;20199;-43
2022/01/22 07:06:28;;;;;;;57.33;29.20;;;4.20;99.90;;;;;;5057109;28;20208;-41
2022/01/22 07:08:54;;;;;;;62.43;30.33;;;4.20;99.90;;;;;;5057077;28;20172;-41
2022/01/22 07:11:20;;;;;;;58.33;28.23;;;4.20;99.90;;;;;;5057411;28;20200;-41
2022/01/22 07:13:46;;;;;;;52.30;31.67;;;4.20;99.90;;;;;;5057112;28;20532;-43
2022/01/22 07:16:12;;;;;;;51.70;27.40;;;4.20;99.90;;;;;;5056740;28;20196;-41
2022/01/22 07:18:38;;;;;;;60.23;30.37;;;4.20;99.90;;;;;;5038838;28;20732;-43
2022/01/22 07:21:20;;;;;;;58.10;30.03;;;4.20;99.90;;;;;;5038821;28;20188;-42
2022/01/22 07:26:16;;;;;;;60.50;29.63;;;4.20;99.90;;;;;;5056975;28;20195;-44
2022/01/22 07:28:42;;;;;;;53.30;27.27;;;4.20;99.90;;;;;;5056599;28;20184;-44
2022/01/22 07:31:08;;;;;;;56.83;27.77;;;4.20;99.90;;;;;;5056446;28;20759;-42
2022/01/22 07:33:37;;;;;;;62.03;30.70;;;4.20;99.90;;;;;;5056669;28;20255;-45
2022/01/22 07:36:04;;;;;;;59.83;33.30;;;4.30;99.90;;;;;;5057017;28;20204;-42
2022/01/22 07:38:29;;;;;;;57.50;30.10;;;4.20;99.90;;;;;;5057099;28;20737;-42
2022/01/22 07:40:55;;;;;;;55.13;28.43;;;4.30;99.90;;;;;;5057257;28;20204;-47
2022/01/22 07:43:21;;;;;;;59.67;30.53;;;4.30;99.90;;;;;;5056514;28;20180;-43
2022/01/22 07:45:46;;;;;;;73.60;33.87;;;4.30;99.90;;;;;;5056607;28;20196;-42
2022/01/22 07:48:12;;;;;;;64.90;32.03;;;4.30;99.90;;;;;;5057139;28;20180;-44
2022/01/22 07:50:38;;;;;;;61.07;32.30;;;4.30;99.90;;;;;;5056944;28;20555;-43
2022/01/22 07:53:03;;;;;;;59.87;33.57;;;4.30;99.90;;;;;;5056918;28;20639;-46
2022/01/22 07:55:30;;;;;;;76.20;42.93;;;4.30;99.90;;;;;;5056251;28;20208;-45
2022/01/22 07:57:56;;;;;;;79.40;39.77;;;4.30;99.90;;;;;;5057233;28;20659;-45
2022/01/22 08:00:22;;;;;;;74.97;43.17;;;4.40;99.90;;;;;;5056299;28;20232;-44
2022/01/22 08:02:49;;;;;;;72.00;35.90;;;5.60;99.90;;;;;;5056739;28;20169;-43
2022/01/22 08:05:14;;;;;;;59.83;31.43;;;4.40;99.90;;;;;;5056632;28;20515;-43
2022/01/22 08:07:44;;;;;;;61.60;33.07;;;4.40;99.90;;;;;;5056941;28;20191;-42
2022/01/22 08:10:11;;;;;;;63.50;33.93;;;4.40;99.90;;;;;;5056786;28;20192;-45
2022/01/22 08:12:38;;;;;;;73.50;39.00;;;4.40;99.90;;;;;;5056578;28;20259;-45
2022/01/22 08:15:13;;;;;;;61.33;32.73;;;4.40;99.90;;;;;;5056098;28;20172;-40
2022/01/22 08:17:39;;;;;;;59.43;30.33;;;4.40;99.90;;;;;;5055956;28;20164;-41
2022/01/22 08:20:06;;;;;;;66.23;31.43;;;4.40;99.90;;;;;;5055530;28;20632;-42
2022/01/22 08:22:32;;;;;;;58.90;30.77;;;4.40;99.90;;;;;;5055775;28;20556;-43
2022/01/22 08:25:00;;;;;;;52.07;26.53;;;4.40;99.90;;;;;;5055771;28;20180;-40
2022/01/22 08:29:56;;;;;;;57.00;29.60;;;4.40;99.90;;;;;;5055685;28;20188;-40
2022/01/22 08:32:35;;;;;;;57.17;28.73;;;4.40;99.90;;;;;;5055428;28;20176;-42
2022/01/22 08:37:45;;;;;;;55.37;30.53;;;4.40;99.90;;;;;;5055359;28;20222;-41
2022/01/22 08:40:11;;;;;;;53.97;28.50;;;4.40;99.90;;;;;;5037207;28;20220;-40
2022/01/22 08:42:37;;;;;;;62.17;31.37;;;4.40;99.90;;;;;;5055477;28;20176;-40
2022/01/22 08:45:04;;;;;;;58.73;30.17;;;4.40;99.90;;;;;;5055162;28;20694;-40
2022/01/22 08:47:30;;;;;;;52.80;25.77;;;4.40;99.90;;;;;;5054895;28;20196;-41
2022/01/22 08:49:55;;;;;;;56.33;30.50;;;4.40;99.90;;;;;;5054901;28;20234;-41
2022/01/22 08:52:25;;;;;;;59.87;29.23;;;4.50;99.90;;;;;;5055135;28;20208;-43
2022/01/22 08:54:51;;;;;;;56.37;30.30;;;4.50;99.90;;;;;;5055195;28;20295;-40
2022/01/22 08:57:18;;;;;;;48.00;24.70;;;4.50;99.90;;;;;;5054864;28;20306;-39
2022/01/22 08:59:44;;;;;;;42.67;25.33;;;4.50;99.90;;;;;;5055323;28;20200;-42
2022/01/22 09:02:10;;;;;;;50.83;28.03;;;4.60;99.90;;;;;;5054857;28;20581;-41
2022/01/22 09:04:36;;;;;;;49.47;25.90;;;4.60;99.90;;;;;;5054844;28;20222;-43
2022/01/22 09:07:01;;;;;;;45.63;26.43;;;4.60;99.90;;;;;;5054615;28;20219;-40
2022/01/22 09:09:27;;;;;;;56.20;25.93;;;4.60;99.90;;;;;;5036809;28;20560;-41
2022/01/22 09:11:54;;;;;;;60.93;27.57;;;4.60;99.90;;;;;;5053869;28;20548;-41
2022/01/22 09:14:20;;;;;;;53.40;28.83;;;4.60;99.90;;;;;;5054615;28;20183;-42
2022/01/22 09:16:48;;;;;;;45.10;24.93;;;4.70;99.90;;;;;;5054990;28;20200;-42
2022/01/22 09:19:14;;;;;;;54.43;27.90;;;4.70;99.90;;;;;;5054668;28;20569;-43
2022/01/22 09:21:50;;;;;;;48.03;25.60;;;4.70;99.90;;;;;;5054412;28;20218;-41
2022/01/22 09:24:16;;;;;;;52.33;26.43;;;4.70;99.90;;;;;;5052360;28;20743;-43
2022/01/22 09:26:43;;;;;;;42.43;24.43;;;4.70;99.90;;;;;;5054683;28;20271;-42
2022/01/22 09:29:09;;;;;;;45.17;25.07;;;4.70;99.90;;;;;;5054374;28;20250;-47
2022/01/22 09:31:34;;;;;;;42.70;23.30;;;4.70;99.90;;;;;;5054368;28;20227;-42
2022/01/22 09:34:01;;;;;;;46.03;26.83;;;4.80;99.90;;;;;;5054411;28;20267;-43
2022/01/22 09:36:28;;;;;;;52.83;26.80;;;4.80;99.90;;;;;;5054354;28;20249;-44
2022/01/22 09:38:54;;;;;;;44.77;24.83;;;4.80;99.90;;;;;;5038203;28;20295;-45
2022/01/22 09:41:21;;;;;;;52.40;27.13;;;4.80;99.90;;;;;;5039134;28;20172;-47
2022/01/22 09:43:47;;;;;;;55.77;25.73;;;4.80;99.90;;;;;;5055723;28;20537;-44
2022/01/22 09:46:13;;;;;;;49.10;26.10;;;4.80;99.90;;;;;;5055889;28;20254;-46
2022/01/22 09:48:44;;;;;;;50.23;26.10;;;4.80;99.90;;;;;;5055722;28;20172;-43
2022/01/22 09:51:11;;;;;;;48.63;27.23;;;4.90;99.90;;;;;;5055855;28;20545;-42
2022/01/22 09:53:38;;;;;;;51.73;24.97;;;4.90;99.90;;;;;;5055996;28;20184;-42
2022/01/22 09:56:04;;;;;;;52.00;26.63;;;4.90;99.90;;;;;;5057141;28;20196;-43
2022/01/22 09:58:30;;;;;;;50.97;26.67;;;4.90;99.90;;;;;;5055156;28;20689;-42
2022/01/22 10:01:23;;;;;;;54.00;27.43;;;5.00;99.90;;;;;;5054098;28;20204;-42
2022/01/22 10:03:49;;;;;;;51.70;27.73;;;5.00;99.90;;;;;;5054165;28;20188;-42
2022/01/22 10:06:18;;;;;;;52.17;24.93;;;5.00;99.90;;;;;;5053622;28;20225;-41
2022/01/22 10:08:44;;;;;;;49.17;27.03;;;5.10;99.90;;;;;;5053972;28;20172;-43
2022/01/22 10:11:25;;;;;;;43.80;21.57;;;5.10;99.90;;;;;;5053674;28;20167;-42
2022/01/22 10:13:53;;;;;;;45.07;24.23;;;5.10;99.90;;;;;;5054044;28;20176;-41
2022/01/22 10:16:23;;;;;;;54.57;25.93;;;5.10;99.90;;;;;;5053632;28;20560;-41
2022/01/22 10:19:15;;;;;;;50.87;28.30;;;5.20;99.90;;;;;;5035402;28;20184;-44
2022/01/22 10:21:48;;;;;;;52.00;26.40;;;5.20;99.90;;;;;;5053430;28;20527;-42
2022/01/22 10:24:26;;;;;;;63.83;29.80;;;5.30;99.90;;;;;;5053291;28;20214;-42
2022/01/22 10:27:22;;;;;;;55.50;27.23;;;5.30;99.90;;;;;;5053546;28;20192;-41
2022/01/22 10:30:13;;;;;;;43.43;21.73;;;5.40;99.90;;;;;;5035774;28;20640;-41
2022/01/22 10:35:15;;;;;;;59.57;28.57;;;5.50;99.90;;;;;;5053424;28;20184;-42
2022/01/22 10:37:41;;;;;;;45.37;24.73;;;5.50;99.90;;;;;;5035290;28;20172;-42
2022/01/22 10:40:31;;;;;;;37.40;21.30;;;5.50;99.90;;;;;;5052994;28;20676;-39
2022/01/22 10:48:52;;;;;;;49.03;25.53;;;5.50;99.90;;;;;;5053387;28;20686;-40
2022/01/22 10:51:18;;;;;;;47.50;26.27;;;5.60;99.90;;;;;;5052992;28;20218;-40
2022/01/22 10:54:00;;;;;;;50.03;23.43;;;5.60;99.90;;;;;;5053053;28;20173;-41
2022/01/22 10:56:28;;;;;;;53.00;26.23;;;5.60;99.90;;;;;;5053702;28;20204;-44
2022/01/22 10:58:57;;;;;;;43.00;25.03;;;5.60;99.90;;;;;;5053097;28;20663;-41
2022/01/22 11:01:27;;;;;;;43.20;23.67;;;5.60;99.90;;;;;;5053116;28;20515;-41
2022/01/22 11:04:11;;;;;;;53.83;27.53;;;5.60;99.90;;;;;;5053929;28;20184;-43
2022/01/22 11:06:39;;;;;;;48.37;26.67;;;5.60;99.90;;;;;;5052981;28;20191;-40
2022/01/22 11:09:07;;;;;;;53.73;26.53;;;5.60;99.90;;;;;;5053348;28;20180;-40
2022/01/22 11:11:40;;;;;;;53.73;27.33;;;5.60;99.90;;;;;;5052849;28;20180;-39
2022/01/22 11:14:08;;;;;;;50.37;27.87;;;5.60;99.90;;;;;;5034970;28;20271;-42
2022/01/22 11:16:36;;;;;;;50.30;27.97;;;5.60;99.90;;;;;;5052688;28;20196;-43
2022/01/22 11:19:03;;;;;;;49.03;27.73;;;5.60;99.90;;;;;;5052717;28;20174;-41
2022/01/22 11:21:30;;;;;;;52.93;27.03;;;5.60;99.90;;;;;;5034910;28;20591;-42
2022/01/22 11:23:56;;;;;;;54.73;28.57;;;5.60;99.90;;;;;;5053284;28;20171;-39
2022/01/22 11:26:22;;;;;;;53.87;27.10;;;5.60;99.90;;;;;;5034819;28;20288;-39
2022/01/22 11:28:52;;;;;;;54.77;28.53;;;5.70;99.90;;;;;;5052765;28;20187;-41
2022/01/22 11:31:19;;;;;;;52.93;26.53;;;5.70;99.90;;;;;;5052817;28;20652;-41
2022/01/22 11:33:48;;;;;;;52.50;26.63;;;5.70;99.90;;;;;;5035221;28;20644;-39
2022/01/22 11:36:19;;;;;;;41.63;23.10;;;5.70;99.90;;;;;;5056248;28;20246;-42
2022/01/22 11:38:57;;;;;;;53.17;28.47;;;5.70;99.90;;;;;;5038321;28;20228;-42
2022/01/22 11:41:24;;;;;;;55.70;27.03;;;5.80;99.90;;;;;;5038469;28;20180;-42
2022/01/22 11:44:10;;;;;;;55.23;27.87;;;5.80;99.90;;;;;;5056551;28;20172;-43
2022/01/22 11:46:43;;;;;;;46.13;25.47;;;5.80;99.90;;;;;;5056157;28;20196;-40
2022/01/22 11:49:26;;;;;;;57.03;28.97;;;5.90;99.90;;;;;;5056315;28;20554;-41
2022/01/22 11:52:07;;;;;;;52.90;27.20;;;5.90;99.90;;;;;;5056277;28;20174;-43
2022/01/22 11:54:52;;;;;;;54.10;27.57;;;5.90;99.90;;;;;;5056125;28;20185;-40
2022/01/22 11:57:18;;;;;;;53.23;28.60;;;5.90;99.90;;;;;;5056070;28;20621;-41
2022/01/22 11:59:46;;;;;;;51.13;28.10;;;5.90;99.90;;;;;;5056183;28;20220;-42
2022/01/22 12:02:13;;;;;;;50.03;26.43;;;6.00;99.90;;;;;;5038114;28;20184;-42
2022/01/22 12:04:39;;;;;;;48.00;28.20;;;5.90;99.90;;;;;;5055854;28;20521;-41
2022/01/22 12:07:05;;;;;;;51.93;26.00;;;6.00;99.90;;;;;;5055728;28;20201;-41
2022/01/22 12:09:41;;;;;;;51.90;26.90;;;6.00;99.90;;;;;;5056335;28;20183;-43
2022/01/22 12:15:19;;;;;;;42.47;25.37;;;6.00;99.90;;;;;;5055970;28;20255;-40
2022/01/22 12:17:56;;;;;;;49.40;26.17;;;6.00;99.90;;;;;;5055971;28;20302;-42
2022/01/22 12:23:24;;;;;;;49.87;24.87;;;6.00;99.90;;;;;;5056048;28;20228;-41
2022/01/22 12:25:51;;;;;;;44.17;23.97;;;6.10;99.90;;;;;;5055732;28;20201;-42
2022/01/22 12:28:41;;;;;;;43.90;24.13;;;6.10;99.90;;;;;;5055685;28;20181;-40
2022/01/22 12:31:15;;;;;;;46.07;22.93;;;6.10;99.90;;;;;;5056105;28;20597;-42
2022/01/22 12:33:40;;;;;;;49.00;26.07;;;6.10;99.90;;;;;;5055978;28;20198;-40
2022/01/22 12:36:23;;;;;;;44.53;26.60;;;6.10;99.90;;;;;;5037421;28;20208;-41
2022/01/22 12:39:04;;;;;;;52.93;27.47;;;6.10;99.90;;;;;;5037406;28;20571;-42
2022/01/22 12:44:26;;;;;;;56.67;26.67;;;6.20;99.90;;;;;;5055534;28;20216;-40
2022/01/22 12:46:54;;;;;;;45.60;25.60;;;6.10;99.90;;;;;;5055100;28;20193;-41
2022/01/22 12:49:22;;;;;;;38.83;23.40;;;6.20;99.90;;;;;;5055323;28;20654;-39
2022/01/22 12:51:57;;;;;;;46.23;27.00;;;6.20;99.90;;;;;;5055171;28;20184;-43
2022/01/22 12:54:45;;;;;;;49.27;26.00;;;6.20;99.90;;;;;;5055050;28;20219;-41
2022/01/22 12:57:16;;;;;;;47.73;26.57;;;6.20;99.90;;;;;;5055269;28;20621;-41
2022/01/22 13:00:29;;;;;;;44.23;26.63;;;6.20;99.90;;;;;;5037011;28;20741;-44
2022/01/22 13:02:51;;;;;;;45.73;27.43;;;6.20;99.90;;;;;;5052564;28;20288;-41
2022/01/22 13:05:18;;;;;;;46.53;26.83;;;6.20;99.90;;;;;;5054734;28;20174;-40
2022/01/22 13:07:52;;;;;;;36.53;21.37;;;6.20;99.90;;;;;;5054696;28;20164;-42
2022/01/22 13:10:22;;;;;;;48.07;28.80;;;6.20;99.90;;;;;;5054650;28;20228;-42
2022/01/22 13:12:47;;;;;;;47.10;26.27;;;6.20;99.90;;;;;;5055169;28;20192;-42
2022/01/22 13:15:17;;;;;;;48.93;26.23;;;6.20;99.90;;;;;;5054836;28;20185;-42
2022/01/22 13:17:51;;;;;;;46.20;25.57;;;6.20;99.90;;;;;;5054585;28;20174;-43
2022/01/22 13:20:27;;;;;;;47.07;27.30;;;6.20;99.90;;;;;;5054808;28;20201;-42
2022/01/22 13:22:54;;;;;;;41.47;23.87;;;6.20;99.90;;;;;;5054566;28;20187;-41
2022/01/22 13:25:20;;;;;;;50.40;26.90;;;6.20;99.90;;;;;;5020286;28;20636;-42
2022/01/22 13:28:01;;;;;;;51.27;27.03;;;6.20;99.90;;;;;;5054494;28;20226;-42
2022/01/22 13:30:37;;;;;;;47.90;27.30;;;6.20;99.90;;;;;;5054946;28;20190;-41
2022/01/22 13:33:38;;;;;;;52.53;28.13;;;6.20;99.90;;;;;;5056191;28;20163;-41
2022/01/22 13:36:26;;;;;;;47.53;27.23;;;6.20;99.90;;;;;;5055800;28;20209;-42
2022/01/22 13:49:52;;;;;;;45.63;27.03;;;6.20;99.90;;;;;;5053966;28;20177;-41
2022/01/22 13:52:19;;;;;;;54.10;29.83;;;6.20;99.90;;;;;;5054200;28;20181;-42
2022/01/22 13:54:49;;;;;;;50.90;26.37;;;6.20;99.90;;;;;;5035933;28;20184;-43
2022/01/22 13:57:26;;;;;;;49.67;27.77;;;6.20;99.90;;;;;;5053212;28;20622;-39
2022/01/22 13:59:55;;;;;;;47.00;28.23;;;6.20;99.90;;;;;;5053933;28;20226;-40
2022/01/22 14:05:03;;;;;;;49.03;25.53;;;6.30;99.90;;;;;;5054073;28;20585;-42
2022/01/22 14:07:48;;;;;;;47.97;28.13;;;6.20;99.90;;;;;;5035658;28;20214;-41
2022/01/22 14:10:19;;;;;;;48.70;26.37;;;6.20;99.90;;;;;;5053859;28;20215;-42
2022/01/22 14:12:47;;;;;;;44.20;27.37;;;6.20;99.90;;;;;;5053506;28;20189;-42
2022/01/22 14:15:26;;;;;;;46.83;27.20;;;6.20;99.90;;;;;;5053388;28;20182;-41
2022/01/22 14:20:40;;;;;;;49.83;27.23;;;6.20;99.90;;;;;;5053678;28;20199;-42
2022/01/22 14:23:07;;;;;;;43.73;25.87;;;6.20;99.90;;;;;;5053634;28;20185;-42
2022/01/22 14:25:35;;;;;;;45.63;26.57;;;6.20;99.90;;;;;;5035397;28;20288;-40
2022/01/22 14:28:07;;;;;;;45.40;26.20;;;6.30;99.90;;;;;;5053870;28;20173;-40
2022/01/22 14:30:43;;;;;;;49.77;25.43;;;6.20;99.90;;;;;;5035493;28;20558;-41
2022/01/22 14:33:14;;;;;;;61.27;26.13;;;6.20;99.90;;;;;;5053484;28;20168;-42
2022/01/22 14:35:42;;;;;;;43.13;23.97;;;6.20;99.90;;;;;;5053182;28;20201;-41
2022/01/22 14:38:36;;;;;;;44.70;25.40;;;6.20;99.90;;;;;;5052727;28;20213;-41
2022/01/22 14:44:25;;;;;;;44.53;25.40;;;6.10;99.90;;;;;;5053140;28;20676;-42
2022/01/22 14:47:04;;;;;;;40.83;25.33;;;6.20;99.90;;;;;;5052581;28;20224;-40
2022/01/22 14:49:34;;;;;;;42.53;26.27;;;6.10;99.90;;;;;;5053367;28;20188;-45
2022/01/22 14:52:00;;;;;;;45.33;24.00;;;6.20;99.90;;;;;;5053132;28;20187;-44
2022/01/22 14:54:28;;;;;;;49.23;28.37;;;6.10;99.90;;;;;;5053300;28;20539;-45
2022/01/22 14:56:54;;;;;;;43.77;25.17;;;6.10;99.90;;;;;;5052988;28;20233;-47
2022/01/22 14:59:20;;;;;;;42.83;24.27;;;6.10;99.90;;;;;;5053489;28;20200;-45
2022/01/22 15:01:46;;;;;;;37.17;23.07;;;6.10;99.90;;;;;;5052975;28;20749;-44
2022/01/22 15:04:12;;;;;;;33.27;20.07;;;6.10;99.90;;;;;;5035177;28;20185;-44
2022/01/22 15:06:38;;;;;;;45.80;24.90;;;6.10;99.90;;;;;;5053037;28;20737;-43